BAW484C EGLL-LEBL
Flight info
| Callsign | BAW484C |
|---|---|
| Flight time | N/A |
| Altitude | 35000 |
| Route | MODM1J MODMI M185 MID L151 SITET UN859 SOPIL DCT BALAN DCT EVPOK DCT NARAK DCT GAI DCT LOMRA DCT ROCAN DCT PUMAL PUMA2W |
| Aircraft | A320/M-VGDW/C |
Departure
| Time | 2026-05-06 16:32 |
|---|---|
| Airport | London Heathrow Airport (EGLL) |
Arrival
| Time | N/A |
|---|---|
| Airport | Josep Tarradellas Barcelona-El Prat Airport (LEBL) |
| Time | Latitude | Longitude | Altitude | Speed | Heading |
|---|---|---|---|---|---|
| 2026-05-06 16:04 | 51.46993 | -0.48615 | 78 ft | 0 kts | 270° |
| 2026-05-06 16:24 | 51.46993 | -0.48607 | 78 ft | 2 kts | 270° |
| 2026-05-06 16:24 | 51.46993 | -0.48583 | 78 ft | 2 kts | 270° |
| 2026-05-06 16:25 | 51.46993 | -0.48559 | 78 ft | 2 kts | 270° |
| 2026-05-06 16:25 | 51.46993 | -0.48536 | 78 ft | 2 kts | 269° |
| 2026-05-06 16:25 | 51.46994 | -0.48512 | 78 ft | 2 kts | 270° |
| 2026-05-06 16:25 | 51.46994 | -0.48497 | 78 ft | 2 kts | 264° |
| 2026-05-06 16:26 | 51.47001 | -0.48477 | 78 ft | 2 kts | 214° |
| 2026-05-06 16:26 | 51.47011 | -0.48470 | 78 ft | 0 kts | 184° |
| 2026-05-06 16:26 | 51.47018 | -0.48471 | 78 ft | 0 kts | 179° |
| 2026-05-06 16:28 | 51.47010 | -0.48471 | 78 ft | 2 kts | 180° |
| 2026-05-06 16:28 | 51.46980 | -0.48471 | 79 ft | 4 kts | 180° |
| 2026-05-06 16:28 | 51.46949 | -0.48471 | 79 ft | 6 kts | 181° |
| 2026-05-06 16:29 | 51.46898 | -0.48471 | 79 ft | 8 kts | 179° |
| 2026-05-06 16:29 | 51.46831 | -0.48470 | 79 ft | 10 kts | 180° |
| 2026-05-06 16:29 | 51.46752 | -0.48470 | 78 ft | 12 kts | 179° |
| 2026-05-06 16:29 | 51.46666 | -0.48469 | 78 ft | 12 kts | 180° |
| 2026-05-06 16:30 | 51.46604 | -0.48468 | 78 ft | 7 kts | 180° |
| 2026-05-06 16:30 | 51.46569 | -0.48468 | 78 ft | 7 kts | 180° |
| 2026-05-06 16:30 | 51.46498 | -0.48464 | 78 ft | 6 kts | 154° |
| 2026-05-06 16:30 | 51.46478 | -0.48415 | 78 ft | 4 kts | 99° |
| 2026-05-06 16:31 | 51.46478 | -0.48389 | 78 ft | 0 kts | 89° |
| 2026-05-06 16:31 | 51.46478 | -0.48377 | 78 ft | 9 kts | 90° |
| 2026-05-06 16:32 | 51.46479 | -0.47815 | 82 ft | 92 kts | 89° |
| 2026-05-06 16:32 | 51.46485 | -0.46354 | 101 ft | 160 kts | 90° |
| 2026-05-06 16:32 | 51.46483 | -0.44561 | 841 ft | 166 kts | 88° |
| 2026-05-06 16:32 | 51.46497 | -0.42671 | 1493 ft | 181 kts | 88° |
| 2026-05-06 16:33 | 51.46139 | -0.40617 | 2009 ft | 206 kts | 121° |
| 2026-05-06 16:33 | 51.45284 | -0.38659 | 2548 ft | 230 kts | 130° |
| 2026-05-06 16:33 | 51.43939 | -0.37104 | 3143 ft | 252 kts | 154° |
| 2026-05-06 16:34 | 51.40406 | -0.35207 | 4479 ft | 284 kts | 181° |
| 2026-05-06 16:34 | 51.38528 | -0.35959 | 5271 ft | 278 kts | 210° |
| 2026-05-06 16:34 | 51.36850 | -0.37422 | 5769 ft | 276 kts | 213° |
| 2026-05-06 16:34 | 51.35160 | -0.38905 | 5975 ft | 279 kts | 212° |
| 2026-05-06 16:35 | 51.33455 | -0.40354 | 6016 ft | 273 kts | 212° |
| 2026-05-06 16:35 | 51.31784 | -0.41740 | 6016 ft | 274 kts | 211° |
| 2026-05-06 16:35 | 51.30074 | -0.43142 | 6011 ft | 281 kts | 210° |
| 2026-05-06 16:35 | 51.28332 | -0.44547 | 6022 ft | 275 kts | 211° |
| 2026-05-06 16:36 | 51.26600 | -0.45942 | 6011 ft | 283 kts | 210° |
| 2026-05-06 16:36 | 51.24878 | -0.47338 | 6224 ft | 275 kts | 211° |
| 2026-05-06 16:36 | 51.23167 | -0.48720 | 6737 ft | 280 kts | 211° |
| 2026-05-06 16:36 | 51.21410 | -0.50111 | 7473 ft | 288 kts | 211° |
| 2026-05-06 16:37 | 51.19611 | -0.51509 | 8427 ft | 288 kts | 211° |
| 2026-05-06 16:37 | 51.17846 | -0.52876 | 9452 ft | 283 kts | 211° |
| 2026-05-06 16:37 | 51.16105 | -0.54224 | 10425 ft | 281 kts | 211° |
| 2026-05-06 16:37 | 51.14337 | -0.55595 | 11136 ft | 288 kts | 211° |
| 2026-05-06 16:38 | 51.12477 | -0.57040 | 11579 ft | 305 kts | 210° |
| 2026-05-06 16:38 | 51.10545 | -0.58535 | 12178 ft | 313 kts | 210° |
| 2026-05-06 16:38 | 51.08593 | -0.60040 | 12922 ft | 316 kts | 211° |
| 2026-05-06 16:38 | 51.06539 | -0.61340 | 13667 ft | 323 kts | 198° |
| 2026-05-06 16:39 | 51.04289 | -0.61477 | 14358 ft | 338 kts | 177° |
| 2026-05-06 16:39 | 51.02020 | -0.60320 | 15016 ft | 351 kts | 165° |
| 2026-05-06 16:39 | 50.99755 | -0.58806 | 15628 ft | 355 kts | 165° |
| 2026-05-06 16:39 | 50.97451 | -0.57268 | 16225 ft | 359 kts | 165° |
| 2026-05-06 16:40 | 50.95151 | -0.55741 | 16810 ft | 363 kts | 165° |
| 2026-05-06 16:40 | 50.92832 | -0.54207 | 17382 ft | 366 kts | 165° |
| 2026-05-06 16:40 | 50.90476 | -0.52652 | 17940 ft | 370 kts | 166° |
| 2026-05-06 16:40 | 50.88081 | -0.51075 | 18489 ft | 373 kts | 166° |
| 2026-05-06 16:41 | 50.85695 | -0.49507 | 19021 ft | 376 kts | 166° |
| 2026-05-06 16:41 | 50.83282 | -0.47922 | 19550 ft | 379 kts | 166° |
| 2026-05-06 16:41 | 50.80825 | -0.46311 | 20075 ft | 382 kts | 166° |
| 2026-05-06 16:41 | 50.78376 | -0.44707 | 20579 ft | 385 kts | 166° |
| 2026-05-06 16:42 | 50.75910 | -0.43094 | 21070 ft | 388 kts | 167° |
| 2026-05-06 16:42 | 50.73418 | -0.41466 | 21550 ft | 390 kts | 167° |
| 2026-05-06 16:42 | 50.70892 | -0.39818 | 22021 ft | 393 kts | 167° |
| 2026-05-06 16:42 | 50.68396 | -0.38191 | 22472 ft | 396 kts | 167° |
| 2026-05-06 16:43 | 50.65835 | -0.36523 | 22922 ft | 398 kts | 167° |
| 2026-05-06 16:43 | 50.63260 | -0.34849 | 23360 ft | 401 kts | 167° |
| 2026-05-06 16:43 | 50.60709 | -0.33192 | 23783 ft | 403 kts | 167° |
| 2026-05-06 16:43 | 50.58118 | -0.31511 | 24198 ft | 406 kts | 168° |
| 2026-05-06 16:44 | 50.55496 | -0.29812 | 24609 ft | 408 kts | 168° |
| 2026-05-06 16:44 | 50.52855 | -0.28103 | 25010 ft | 411 kts | 168° |
| 2026-05-06 16:44 | 50.50230 | -0.26406 | 25397 ft | 413 kts | 168° |
| 2026-05-06 16:44 | 50.47569 | -0.24688 | 25777 ft | 415 kts | 168° |
| 2026-05-06 16:45 | 50.44902 | -0.22969 | 26149 ft | 418 kts | 168° |
| 2026-05-06 16:45 | 50.42190 | -0.21221 | 26519 ft | 420 kts | 168° |
| 2026-05-06 16:45 | 50.39493 | -0.19487 | 26877 ft | 422 kts | 168° |
| 2026-05-06 16:45 | 50.36799 | -0.17756 | 27225 ft | 424 kts | 168° |
| 2026-05-06 16:46 | 50.34040 | -0.15986 | 27570 ft | 427 kts | 168° |
| 2026-05-06 16:46 | 50.31296 | -0.14228 | 27904 ft | 429 kts | 169° |
| 2026-05-06 16:46 | 50.28560 | -0.12476 | 28228 ft | 431 kts | 169° |
| 2026-05-06 16:46 | 50.25784 | -0.10701 | 28547 ft | 433 kts | 169° |
| 2026-05-06 16:47 | 50.22969 | -0.08904 | 28862 ft | 435 kts | 169° |
| 2026-05-06 16:47 | 50.20179 | -0.07087 | 29164 ft | 439 kts | 167° |
| 2026-05-06 16:47 | 50.17397 | -0.05142 | 29462 ft | 441 kts | 167° |
| 2026-05-06 16:47 | 50.14617 | -0.03208 | 29751 ft | 443 kts | 167° |
| 2026-05-06 16:48 | 50.11774 | -0.01239 | 30035 ft | 444 kts | 168° |
| 2026-05-06 16:48 | 50.08920 | 0.00390 | 30305 ft | 436 kts | 175° |
| 2026-05-06 16:48 | 50.06007 | 0.01585 | 30579 ft | 433 kts | 178° |
| 2026-05-06 16:48 | 50.03096 | 0.02728 | 30852 ft | 435 kts | 178° |
| 2026-05-06 16:49 | 50.00160 | 0.03883 | 31116 ft | 436 kts | 178° |
| 2026-05-06 16:49 | 49.97208 | 0.05044 | 31377 ft | 438 kts | 178° |
| 2026-05-06 16:49 | 49.94283 | 0.06193 | 31624 ft | 440 kts | 178° |
| 2026-05-06 16:49 | 49.91291 | 0.07367 | 31868 ft | 441 kts | 178° |
| 2026-05-06 16:50 | 49.88319 | 0.08533 | 32103 ft | 442 kts | 178° |
| 2026-05-06 16:50 | 49.85337 | 0.09700 | 32334 ft | 444 kts | 178° |
| 2026-05-06 16:50 | 49.82382 | 0.10856 | 32574 ft | 445 kts | 178° |
| 2026-05-06 16:50 | 49.79393 | 0.12026 | 32927 ft | 443 kts | 178° |
| 2026-05-06 16:51 | 49.76423 | 0.13187 | 33254 ft | 441 kts | 178° |
| 2026-05-06 16:51 | 49.73446 | 0.14347 | 33558 ft | 440 kts | 178° |
| 2026-05-06 16:51 | 49.70515 | 0.15488 | 33846 ft | 439 kts | 179° |
| 2026-05-06 16:51 | 49.67567 | 0.16635 | 34127 ft | 439 kts | 178° |
| 2026-05-06 16:52 | 49.64601 | 0.17828 | 34393 ft | 439 kts | 178° |
| 2026-05-06 16:52 | 49.61683 | 0.19010 | 34647 ft | 438 kts | 178° |
| 2026-05-06 16:52 | 49.58715 | 0.20209 | 34898 ft | 438 kts | 178° |
| 2026-05-06 16:52 | 49.55774 | 0.21393 | 35033 ft | 438 kts | 178° |
| 2026-05-06 16:53 | 49.52871 | 0.22562 | 35049 ft | 437 kts | 178° |
| 2026-05-06 16:53 | 49.47027 | 0.24904 | 35044 ft | 436 kts | 178° |
| 2026-05-06 16:54 | 49.41134 | 0.27251 | 35040 ft | 437 kts | 178° |
| 2026-05-06 16:54 | 49.35253 | 0.29574 | 35041 ft | 437 kts | 178° |
| 2026-05-06 16:55 | 49.29402 | 0.31920 | 35041 ft | 439 kts | 177° |
| 2026-05-06 16:55 | 49.23506 | 0.34427 | 35041 ft | 439 kts | 177° |
| 2026-05-06 16:56 | 49.17652 | 0.36874 | 35041 ft | 439 kts | 177° |
| 2026-05-06 16:56 | 49.11769 | 0.39413 | 35041 ft | 440 kts | 177° |
| 2026-05-06 16:57 | 49.05915 | 0.41887 | 35038 ft | 444 kts | 176° |
| 2026-05-06 16:57 | 48.99902 | 0.44392 | 35038 ft | 451 kts | 174° |
| 2026-05-06 16:58 | 48.93850 | 0.46907 | 35039 ft | 456 kts | 173° |
| 2026-05-06 16:58 | 48.87774 | 0.49432 | 35039 ft | 455 kts | 173° |
| 2026-05-06 16:59 | 48.81753 | 0.51926 | 35037 ft | 454 kts | 173° |
| 2026-05-06 16:59 | 48.75717 | 0.54374 | 35034 ft | 453 kts | 174° |
| 2026-05-06 17:00 | 48.69617 | 0.56751 | 35033 ft | 452 kts | 174° |
| 2026-05-06 17:00 | 48.63561 | 0.59114 | 35031 ft | 453 kts | 174° |
| 2026-05-06 17:01 | 48.57491 | 0.61482 | 35029 ft | 453 kts | 174° |
| 2026-05-06 17:01 | 48.51522 | 0.63806 | 35027 ft | 453 kts | 174° |
| 2026-05-06 17:02 | 48.45642 | 0.66201 | 35025 ft | 453 kts | 174° |
| 2026-05-06 17:02 | 48.39479 | 0.68712 | 35030 ft | 452 kts | 174° |
| 2026-05-06 17:03 | 48.33414 | 0.71171 | 35039 ft | 453 kts | 174° |
| 2026-05-06 17:03 | 48.27389 | 0.73606 | 35040 ft | 453 kts | 174° |
| 2026-05-06 17:04 | 48.21291 | 0.76036 | 35036 ft | 452 kts | 175° |
| 2026-05-06 17:04 | 48.15248 | 0.78409 | 35036 ft | 453 kts | 175° |
| 2026-05-06 17:05 | 48.09147 | 0.80803 | 35033 ft | 453 kts | 175° |
| 2026-05-06 17:05 | 48.03067 | 0.83184 | 35031 ft | 452 kts | 175° |
| 2026-05-06 17:06 | 47.96991 | 0.85558 | 35041 ft | 452 kts | 175° |
| 2026-05-06 17:06 | 47.90942 | 0.87916 | 35041 ft | 452 kts | 175° |
| 2026-05-06 17:07 | 47.84918 | 0.90259 | 35041 ft | 452 kts | 175° |
| 2026-05-06 17:07 | 47.78842 | 0.92615 | 35040 ft | 452 kts | 175° |
| 2026-05-06 17:08 | 47.72778 | 0.94962 | 35040 ft | 451 kts | 175° |
| 2026-05-06 17:08 | 47.66738 | 0.97293 | 35041 ft | 452 kts | 174° |
| 2026-05-06 17:09 | 47.60668 | 0.99631 | 35041 ft | 453 kts | 174° |
| 2026-05-06 17:09 | 47.54597 | 1.01963 | 35040 ft | 453 kts | 174° |
| 2026-05-06 17:10 | 47.48499 | 1.04301 | 35041 ft | 453 kts | 174° |
| 2026-05-06 17:10 | 47.42395 | 1.06267 | 35042 ft | 443 kts | 184° |
| 2026-05-06 17:11 | 47.36367 | 1.06299 | 35039 ft | 435 kts | 189° |
| 2026-05-06 17:11 | 47.30335 | 1.06150 | 35044 ft | 435 kts | 189° |
| 2026-05-06 17:12 | 47.24325 | 1.06006 | 35049 ft | 435 kts | 189° |
| 2026-05-06 17:12 | 47.18260 | 1.05864 | 35054 ft | 435 kts | 189° |
| 2026-05-06 17:13 | 47.12222 | 1.05723 | 35053 ft | 435 kts | 189° |
| 2026-05-06 17:13 | 47.06214 | 1.05583 | 35053 ft | 435 kts | 189° |
| 2026-05-06 17:14 | 47.00172 | 1.05417 | 35054 ft | 434 kts | 190° |
| 2026-05-06 17:14 | 46.94149 | 1.05145 | 35053 ft | 434 kts | 190° |
| 2026-05-06 17:15 | 46.88131 | 1.04882 | 35053 ft | 435 kts | 190° |
| 2026-05-06 17:15 | 46.82090 | 1.04624 | 35057 ft | 434 kts | 189° |
| 2026-05-06 17:16 | 46.76090 | 1.04368 | 35059 ft | 434 kts | 189° |
| 2026-05-06 17:16 | 46.70049 | 1.04111 | 35061 ft | 434 kts | 189° |
| 2026-05-06 17:17 | 46.64067 | 1.03858 | 35061 ft | 434 kts | 189° |
| 2026-05-06 17:17 | 46.58022 | 1.03603 | 35062 ft | 434 kts | 189° |
| 2026-05-06 17:18 | 46.52031 | 1.03508 | 35061 ft | 440 kts | 183° |
| 2026-05-06 17:18 | 46.45897 | 1.05234 | 35060 ft | 451 kts | 175° |
| 2026-05-06 17:19 | 46.39833 | 1.07274 | 35061 ft | 452 kts | 175° |
| 2026-05-06 17:19 | 46.33690 | 1.09327 | 35060 ft | 453 kts | 175° |
| 2026-05-06 17:20 | 46.27595 | 1.11357 | 35061 ft | 454 kts | 175° |
| 2026-05-06 17:20 | 46.21426 | 1.13406 | 35060 ft | 455 kts | 175° |
| 2026-05-06 17:21 | 46.15287 | 1.15440 | 35067 ft | 456 kts | 176° |
| 2026-05-06 17:21 | 46.09114 | 1.17481 | 35065 ft | 457 kts | 176° |
| 2026-05-06 17:22 | 46.02921 | 1.19524 | 35066 ft | 458 kts | 176° |
| 2026-05-06 17:22 | 45.96713 | 1.21567 | 35067 ft | 459 kts | 176° |
| 2026-05-06 17:23 | 45.90543 | 1.23594 | 35066 ft | 458 kts | 176° |
| 2026-05-06 17:23 | 45.84364 | 1.25618 | 35066 ft | 458 kts | 176° |
| 2026-05-06 17:24 | 45.78268 | 1.27611 | 35066 ft | 458 kts | 176° |
| 2026-05-06 17:24 | 45.72074 | 1.29631 | 35066 ft | 458 kts | 176° |
| 2026-05-06 17:25 | 45.65897 | 1.31641 | 35066 ft | 458 kts | 176° |
| 2026-05-06 17:25 | 45.59694 | 1.33654 | 35066 ft | 459 kts | 176° |
| 2026-05-06 17:26 | 45.53503 | 1.35660 | 35066 ft | 458 kts | 176° |
| 2026-05-06 17:26 | 45.47320 | 1.37658 | 35066 ft | 458 kts | 176° |
| 2026-05-06 17:27 | 45.41109 | 1.39661 | 35066 ft | 458 kts | 176° |
| 2026-05-06 17:27 | 45.34942 | 1.41645 | 35065 ft | 457 kts | 176° |
| 2026-05-06 17:28 | 45.28767 | 1.43627 | 35066 ft | 457 kts | 176° |
| 2026-05-06 17:28 | 45.22594 | 1.45605 | 35066 ft | 456 kts | 176° |
| 2026-05-06 17:29 | 45.16405 | 1.47583 | 35066 ft | 456 kts | 176° |
| 2026-05-06 17:29 | 45.10266 | 1.49540 | 35066 ft | 455 kts | 176° |
| 2026-05-06 17:30 | 45.04133 | 1.51491 | 35066 ft | 457 kts | 175° |
| 2026-05-06 17:30 | 44.97965 | 1.53448 | 35067 ft | 459 kts | 175° |
| 2026-05-06 17:31 | 44.91707 | 1.55432 | 35066 ft | 460 kts | 174° |
| 2026-05-06 17:31 | 44.85650 | 1.57348 | 35067 ft | 459 kts | 175° |
| 2026-05-06 17:32 | 44.79388 | 1.59323 | 35067 ft | 458 kts | 175° |
| 2026-05-06 17:32 | 44.73225 | 1.61262 | 35067 ft | 457 kts | 175° |
| 2026-05-06 17:33 | 44.67032 | 1.63207 | 35067 ft | 456 kts | 175° |
| 2026-05-06 17:33 | 44.60873 | 1.65137 | 35067 ft | 455 kts | 175° |
| 2026-05-06 17:34 | 44.54750 | 1.67052 | 35067 ft | 453 kts | 175° |
| 2026-05-06 17:34 | 44.48585 | 1.68975 | 35068 ft | 454 kts | 175° |
| 2026-05-06 17:35 | 44.42484 | 1.70873 | 35068 ft | 454 kts | 175° |
| 2026-05-06 17:35 | 44.36317 | 1.72789 | 35068 ft | 455 kts | 175° |
| 2026-05-06 17:36 | 44.27036 | 1.75450 | 35063 ft | 450 kts | 179° |
| 2026-05-06 17:36 | 44.20900 | 1.76804 | 35056 ft | 450 kts | 179° |
| 2026-05-06 17:37 | 44.14704 | 1.78174 | 35051 ft | 450 kts | 179° |
| 2026-05-06 17:37 | 44.08546 | 1.79532 | 35055 ft | 450 kts | 179° |
| 2026-05-06 17:38 | 44.02360 | 1.80893 | 35056 ft | 450 kts | 179° |
| 2026-05-06 17:38 | 43.96185 | 1.82224 | 35057 ft | 448 kts | 181° |
| 2026-05-06 17:39 | 43.90055 | 1.82942 | 35058 ft | 444 kts | 184° |
| 2026-05-06 17:39 | 43.83898 | 1.83539 | 35059 ft | 445 kts | 184° |
| 2026-05-06 17:40 | 43.77725 | 1.84139 | 35059 ft | 445 kts | 184° |
| 2026-05-06 17:40 | 43.71601 | 1.84732 | 35059 ft | 445 kts | 184° |
| 2026-05-06 17:41 | 43.65445 | 1.85328 | 35061 ft | 444 kts | 184° |
| 2026-05-06 17:41 | 43.59282 | 1.85922 | 35061 ft | 445 kts | 184° |
| 2026-05-06 17:42 | 43.53099 | 1.86517 | 35063 ft | 445 kts | 184° |
| 2026-05-06 17:42 | 43.46951 | 1.87109 | 35062 ft | 444 kts | 184° |
| 2026-05-06 17:43 | 43.40788 | 1.87699 | 35062 ft | 445 kts | 184° |
| 2026-05-06 17:43 | 43.34635 | 1.88288 | 35065 ft | 445 kts | 184° |
| 2026-05-06 17:44 | 43.28502 | 1.88875 | 35063 ft | 445 kts | 184° |
| 2026-05-06 17:44 | 43.22295 | 1.89468 | 35065 ft | 445 kts | 184° |
| 2026-05-06 17:45 | 43.16155 | 1.90053 | 35066 ft | 445 kts | 184° |
| 2026-05-06 17:45 | 43.09986 | 1.90640 | 35067 ft | 445 kts | 184° |
| 2026-05-06 17:46 | 43.03819 | 1.91226 | 35067 ft | 445 kts | 184° |
| 2026-05-06 17:46 | 42.97672 | 1.91810 | 34809 ft | 440 kts | 183° |
| 2026-05-06 17:47 | 42.94638 | 1.92099 | 34374 ft | 437 kts | 183° |
| 2026-05-06 17:47 | 42.91634 | 1.92384 | 33899 ft | 435 kts | 182° |
| 2026-05-06 17:47 | 42.88647 | 1.92667 | 33439 ft | 432 kts | 182° |
| 2026-05-06 17:47 | 42.85720 | 1.92944 | 32991 ft | 429 kts | 182° |
| 2026-05-06 17:48 | 42.82745 | 1.93225 | 32530 ft | 426 kts | 182° |
| 2026-05-06 17:48 | 42.79802 | 1.93503 | 32089 ft | 422 kts | 181° |
| 2026-05-06 17:48 | 42.76920 | 1.93775 | 31639 ft | 419 kts | 181° |
| 2026-05-06 17:48 | 42.74049 | 1.94044 | 31188 ft | 416 kts | 181° |
| 2026-05-06 17:49 | 42.71353 | 1.94297 | 30753 ft | 413 kts | 181° |
| 2026-05-06 17:49 | 42.68447 | 1.94573 | 30302 ft | 410 kts | 180° |
| 2026-05-06 17:49 | 42.65631 | 1.95010 | 29860 ft | 410 kts | 176° |
| 2026-05-06 17:49 | 42.62872 | 1.95578 | 29416 ft | 407 kts | 176° |
| 2026-05-06 17:50 | 42.60057 | 1.96148 | 28953 ft | 404 kts | 176° |
| 2026-05-06 17:50 | 42.57328 | 1.96699 | 28508 ft | 401 kts | 176° |
| 2026-05-06 17:50 | 42.54580 | 1.97253 | 28058 ft | 398 kts | 176° |
| 2026-05-06 17:50 | 42.51865 | 1.97801 | 27607 ft | 395 kts | 176° |
| 2026-05-06 17:51 | 42.49163 | 1.98345 | 27162 ft | 392 kts | 176° |
| 2026-05-06 17:51 | 42.46485 | 1.98884 | 26714 ft | 389 kts | 176° |
| 2026-05-06 17:51 | 42.43857 | 1.99413 | 26264 ft | 387 kts | 176° |
| 2026-05-06 17:51 | 42.41235 | 1.99940 | 25818 ft | 384 kts | 176° |
| 2026-05-06 17:52 | 42.38578 | 2.00476 | 25368 ft | 382 kts | 175° |
| 2026-05-06 17:52 | 42.36062 | 2.01494 | 24900 ft | 388 kts | 156° |
| 2026-05-06 17:52 | 42.33759 | 2.03372 | 24464 ft | 388 kts | 150° |
| 2026-05-06 17:52 | 42.31499 | 2.05351 | 24109 ft | 386 kts | 150° |
| 2026-05-06 17:53 | 42.29248 | 2.07321 | 24002 ft | 387 kts | 150° |
| 2026-05-06 17:53 | 42.26981 | 2.09300 | 23990 ft | 388 kts | 150° |
| 2026-05-06 17:53 | 42.24723 | 2.11267 | 23989 ft | 387 kts | 150° |
| 2026-05-06 17:53 | 42.22441 | 2.13253 | 23988 ft | 386 kts | 150° |
| 2026-05-06 17:54 | 42.20213 | 2.15189 | 23987 ft | 386 kts | 150° |
| 2026-05-06 17:54 | 42.17952 | 2.17150 | 23987 ft | 386 kts | 150° |
| 2026-05-06 17:54 | 42.15700 | 2.19102 | 23988 ft | 386 kts | 150° |
| 2026-05-06 17:54 | 42.13457 | 2.21045 | 23988 ft | 386 kts | 150° |
| 2026-05-06 17:55 | 42.11208 | 2.22991 | 23988 ft | 386 kts | 150° |
| 2026-05-06 17:55 | 42.08921 | 2.24968 | 23988 ft | 386 kts | 150° |
| 2026-05-06 17:55 | 42.06684 | 2.26900 | 23988 ft | 386 kts | 150° |
| 2026-05-06 17:55 | 42.04402 | 2.28870 | 23988 ft | 386 kts | 150° |
| 2026-05-06 17:56 | 42.02166 | 2.30798 | 23989 ft | 386 kts | 150° |
| 2026-05-06 17:56 | 41.99917 | 2.32736 | 23988 ft | 386 kts | 150° |
| 2026-05-06 17:56 | 41.97639 | 2.34697 | 23988 ft | 386 kts | 150° |
| 2026-05-06 17:56 | 41.95383 | 2.36637 | 23988 ft | 386 kts | 150° |
| 2026-05-06 17:57 | 41.93122 | 2.38580 | 23988 ft | 386 kts | 150° |
| 2026-05-06 17:57 | 41.90861 | 2.40521 | 23988 ft | 385 kts | 150° |
| 2026-05-06 17:57 | 41.88621 | 2.42442 | 23987 ft | 386 kts | 150° |
| 2026-05-06 17:57 | 41.86346 | 2.44393 | 23988 ft | 386 kts | 150° |
| 2026-05-06 17:58 | 41.84088 | 2.46326 | 23988 ft | 386 kts | 150° |
| 2026-05-06 17:58 | 41.81823 | 2.48264 | 23988 ft | 386 kts | 150° |
| 2026-05-06 17:58 | 41.79579 | 2.50183 | 23988 ft | 386 kts | 150° |